createdAt,value
2023-05-06T00:01:46.300Z,2.00
2023-05-06T00:04:13.374Z,1.80
2023-05-06T00:06:41.868Z,1.70
2023-05-06T00:09:08.657Z,1.90
2023-05-06T00:11:35.474Z,1.90
2023-05-06T00:14:02.252Z,1.60
2023-05-06T00:16:29.119Z,1.80
2023-05-06T00:18:55.949Z,2.10
2023-05-06T00:21:22.723Z,2.30
2023-05-06T00:23:49.447Z,1.80
2023-05-06T00:26:16.352Z,1.90
2023-05-06T00:28:43.121Z,2.00
2023-05-06T00:31:10.017Z,2.10
2023-05-06T00:33:37.057Z,1.50
2023-05-06T00:36:04.153Z,1.80
2023-05-06T00:38:31.054Z,1.70
2023-05-06T00:40:57.899Z,2.10
2023-05-06T00:43:25.257Z,1.70
2023-05-06T00:45:52.154Z,1.90
2023-05-06T00:48:19.063Z,1.80
2023-05-06T00:50:45.833Z,2.20
2023-05-06T00:53:12.713Z,1.70
2023-05-06T00:55:39.856Z,1.60
2023-05-06T00:58:06.704Z,1.90
2023-05-06T01:00:33.653Z,1.70
2023-05-06T01:03:02.737Z,1.30
2023-05-06T01:05:34.418Z,1.90
2023-05-06T01:08:26.429Z,1.40
2023-05-06T01:11:24.332Z,1.90
2023-05-06T01:14:00.155Z,1.70
2023-05-06T01:16:32.418Z,1.60
2023-05-06T01:18:59.429Z,1.80
2023-05-06T01:21:26.809Z,1.60
2023-05-06T01:23:58.409Z,1.60
2023-05-06T01:26:26.519Z,2.00
2023-05-06T01:28:54.209Z,1.50
2023-05-06T01:31:30.342Z,1.40
2023-05-06T01:34:21.290Z,1.60
2023-05-06T01:37:06.841Z,1.70
2023-05-06T01:39:33.701Z,1.60
2023-05-06T01:42:00.897Z,1.70
2023-05-06T01:44:29.477Z,1.70
2023-05-06T01:46:56.370Z,1.40
2023-05-06T01:49:23.713Z,2.30
2023-05-06T01:51:51.773Z,1.80
2023-05-06T01:54:18.683Z,1.50
2023-05-06T01:56:46.743Z,1.40
2023-05-06T01:59:15.000Z,1.80
2023-05-06T02:01:41.832Z,1.60
2023-05-06T02:04:08.927Z,1.60
2023-05-06T02:06:36.201Z,1.40
2023-05-06T02:09:04.414Z,1.40
2023-05-06T02:11:34.082Z,1.80
2023-05-06T02:14:06.511Z,1.70
2023-05-06T02:16:34.288Z,1.50
2023-05-06T02:19:01.186Z,1.70
2023-05-06T02:21:28.242Z,1.50
2023-05-06T02:23:55.102Z,1.50
2023-05-06T02:26:23.173Z,1.40
2023-05-06T02:28:50.129Z,1.30
2023-05-06T02:31:17.062Z,1.30
2023-05-06T02:33:45.056Z,1.30
2023-05-06T02:36:11.910Z,1.30
2023-05-06T02:38:38.749Z,1.60
2023-05-06T02:41:05.564Z,1.70
2023-05-06T02:43:33.026Z,1.50
2023-05-06T02:46:00.058Z,1.50
2023-05-06T02:48:26.998Z,1.40
2023-05-06T02:50:53.890Z,1.30
2023-05-06T02:53:20.820Z,1.20
2023-05-06T02:55:47.773Z,1.50
2023-05-06T02:58:14.940Z,1.30
2023-05-06T03:00:42.062Z,1.10
2023-05-06T03:03:09.977Z,1.70
2023-05-06T03:05:36.881Z,1.90
2023-05-06T03:08:05.397Z,1.40
2023-05-06T03:10:32.682Z,1.40
2023-05-06T03:13:00.318Z,1.60
2023-05-06T03:15:28.398Z,1.90
2023-05-06T03:17:55.868Z,1.50
2023-05-06T03:20:23.757Z,1.30
2023-05-06T03:22:52.595Z,1.50
2023-05-06T03:25:20.078Z,1.40
2023-05-06T03:27:47.394Z,1.70
2023-05-06T03:30:18.210Z,2.30
2023-05-06T03:32:45.529Z,1.60
2023-05-06T03:35:15.143Z,1.80
2023-05-06T03:37:43.358Z,1.80
2023-05-06T03:40:10.568Z,1.70
2023-05-06T03:42:37.947Z,1.50
2023-05-06T03:45:06.660Z,1.20
2023-05-06T03:47:33.747Z,1.30
2023-05-06T03:50:01.824Z,1.40
2023-05-06T03:52:30.095Z,1.60
2023-05-06T03:54:58.489Z,1.50
2023-05-06T03:57:27.814Z,1.70
2023-05-06T03:59:56.231Z,1.70
2023-05-06T04:02:23.873Z,1.50
2023-05-06T04:04:51.502Z,1.50
2023-05-06T04:07:18.339Z,1.60
2023-05-06T04:09:45.263Z,1.60
2023-05-06T04:12:12.120Z,1.60
2023-05-06T04:14:39.717Z,1.60
2023-05-06T04:17:07.991Z,1.60
2023-05-06T04:19:34.966Z,1.80
2023-05-06T04:22:02.595Z,2.00
2023-05-06T04:24:31.425Z,1.70
2023-05-06T04:26:59.357Z,1.80
2023-05-06T04:29:27.144Z,1.50
2023-05-06T04:31:58.188Z,2.10
2023-05-06T04:34:27.947Z,1.80
2023-05-06T04:36:58.216Z,1.50
2023-05-06T04:39:49.007Z,1.90
2023-05-06T04:42:17.135Z,1.90
2023-05-06T04:44:52.166Z,2.60
2023-05-06T04:47:21.279Z,1.80
2023-05-06T04:49:49.795Z,1.70
2023-05-06T04:52:17.203Z,2.10
2023-05-06T04:54:45.669Z,1.70
2023-05-06T04:57:13.138Z,1.50
2023-05-06T04:59:41.852Z,1.80
2023-05-06T05:02:09.129Z,1.60
2023-05-06T05:04:37.064Z,2.20
2023-05-06T05:07:04.321Z,2.00
2023-05-06T05:09:31.624Z,1.80
2023-05-06T05:11:58.525Z,1.90
2023-05-06T05:14:26.462Z,2.10
2023-05-06T05:16:53.509Z,1.70
2023-05-06T05:19:21.464Z,1.60
2023-05-06T05:21:49.346Z,2.10
2023-05-06T05:24:17.083Z,2.00
2023-05-06T05:26:43.886Z,1.70
2023-05-06T05:29:11.416Z,1.60
2023-05-06T05:31:38.535Z,1.90
2023-05-06T05:34:06.750Z,2.10
2023-05-06T05:36:33.795Z,1.50
2023-05-06T05:39:02.427Z,1.40
2023-05-06T05:41:29.957Z,1.80
2023-05-06T05:43:56.830Z,2.00
2023-05-06T05:46:24.018Z,1.60
2023-05-06T05:48:51.483Z,1.60
2023-05-06T05:51:18.523Z,2.60
2023-05-06T05:53:45.730Z,1.70
2023-05-06T05:56:13.321Z,1.70
2023-05-06T05:58:40.943Z,1.90
2023-05-06T06:01:08.503Z,1.90
2023-05-06T06:03:35.898Z,1.80
2023-05-06T06:06:02.954Z,1.50
2023-05-06T06:08:31.865Z,1.80
2023-05-06T06:10:59.250Z,1.80
2023-05-06T06:13:30.543Z,2.00
2023-05-06T06:15:58.674Z,1.50
2023-05-06T06:18:25.641Z,2.00
2023-05-06T06:20:53.498Z,1.40
2023-05-06T06:23:21.078Z,1.50
2023-05-06T06:25:48.036Z,1.40
2023-05-06T06:28:15.730Z,1.80
2023-05-06T06:30:43.790Z,1.80
2023-05-06T06:33:10.569Z,1.60
2023-05-06T06:35:37.360Z,1.40
2023-05-06T06:38:04.149Z,1.30
2023-05-06T06:40:31.132Z,1.60
2023-05-06T06:42:57.995Z,1.90
2023-05-06T06:45:51.176Z,1.40
2023-05-06T06:48:18.099Z,1.60
2023-05-06T06:50:45.194Z,1.60
2023-05-06T06:53:12.005Z,1.80
2023-05-06T06:55:38.857Z,1.80
2023-05-06T06:58:05.871Z,1.70
2023-05-06T07:00:32.823Z,1.90
2023-05-06T07:02:59.686Z,1.50
2023-05-06T07:05:27.483Z,1.70
2023-05-06T07:07:54.934Z,1.60
2023-05-06T07:10:22.348Z,1.40
2023-05-06T07:12:49.165Z,2.10
2023-05-06T07:15:15.999Z,1.50
2023-05-06T07:17:42.962Z,1.60
2023-05-06T07:20:10.672Z,1.90
2023-05-06T07:22:37.531Z,1.80
2023-05-06T07:25:04.674Z,1.30
2023-05-06T07:27:31.596Z,1.80
2023-05-06T07:29:58.477Z,1.50
2023-05-06T07:32:25.256Z,1.30
2023-05-06T07:34:52.075Z,1.50
2023-05-06T07:37:18.818Z,2.20
2023-05-06T07:39:45.687Z,1.30
2023-05-06T07:42:13.218Z,1.80
2023-05-06T07:44:40.255Z,1.30
2023-05-06T07:47:07.398Z,1.30
2023-05-06T07:49:35.263Z,1.50
2023-05-06T07:54:08.416Z,1.50
2023-05-06T07:56:35.517Z,1.90
2023-05-06T07:59:02.194Z,1.70
2023-05-06T08:01:28.985Z,1.60
2023-05-06T08:03:55.831Z,1.90
2023-05-06T08:06:22.904Z,1.50
2023-05-06T08:08:49.567Z,1.60
2023-05-06T08:11:17.491Z,1.60
2023-05-06T08:13:46.466Z,1.80
2023-05-06T08:16:13.124Z,1.40
2023-05-06T08:18:40.097Z,1.70
2023-05-06T08:21:06.657Z,1.50
2023-05-06T08:23:34.780Z,1.70
2023-05-06T08:26:01.470Z,2.30
2023-05-06T08:28:28.785Z,2.10
2023-05-06T08:30:55.449Z,2.30
2023-05-06T08:33:22.416Z,2.10
2023-05-06T08:35:50.226Z,2.60
2023-05-06T08:38:18.243Z,2.20
2023-05-06T08:40:44.948Z,1.80
2023-05-06T08:43:15.108Z,2.00
2023-05-06T08:45:42.114Z,2.10
2023-05-06T08:48:09.235Z,2.10
2023-05-06T08:50:42.545Z,2.90
2023-05-06T08:53:12.910Z,2.00
2023-05-06T08:55:42.940Z,1.70
2023-05-06T08:58:11.135Z,1.90
2023-05-06T09:00:37.882Z,1.70
2023-05-06T09:03:05.263Z,2.00
2023-05-06T09:05:31.848Z,3.20
2023-05-06T09:07:58.870Z,1.80
2023-05-06T09:10:30.982Z,2.70
2023-05-06T09:12:57.669Z,2.10
2023-05-06T09:15:25.911Z,3.00
2023-05-06T09:17:53.477Z,2.20
2023-05-06T09:20:20.228Z,2.60
2023-05-06T09:22:47.092Z,2.60
2023-05-06T09:25:13.737Z,2.30
2023-05-06T09:27:40.570Z,1.90
2023-05-06T09:30:08.971Z,1.60
2023-05-06T09:32:39.125Z,2.10
2023-05-06T09:35:08.228Z,2.20
2023-05-06T09:37:35.724Z,2.10
2023-05-06T09:40:02.645Z,2.10
2023-05-06T09:42:30.357Z,3.40
2023-05-06T09:45:01.374Z,3.50
2023-05-06T09:47:33.211Z,2.70
2023-05-06T09:50:02.795Z,2.00
2023-05-06T09:52:30.508Z,2.00
2023-05-06T09:54:57.161Z,2.20
2023-05-06T09:57:23.878Z,2.20
2023-05-06T09:59:51.628Z,2.00
2023-05-06T10:02:18.877Z,2.00
2023-05-06T10:04:45.865Z,2.40
2023-05-06T10:07:13.360Z,2.10
2023-05-06T10:09:40.587Z,2.70
2023-05-06T10:12:08.235Z,2.30
2023-05-06T10:14:37.240Z,2.00
2023-05-06T10:17:07.510Z,2.40
2023-05-06T10:19:34.348Z,2.00
2023-05-06T10:22:07.684Z,2.20
2023-05-06T10:24:40.185Z,2.60
2023-05-06T10:27:07.299Z,1.90
2023-05-06T10:29:35.218Z,2.30
2023-05-06T10:32:02.631Z,1.90
2023-05-06T10:34:31.831Z,2.10
2023-05-06T10:36:58.378Z,2.20
2023-05-06T10:39:25.497Z,2.20
2023-05-06T10:41:52.147Z,2.40
2023-05-06T10:44:46.584Z,1.90
2023-05-06T10:47:13.148Z,2.30
2023-05-06T10:49:39.655Z,1.90
2023-05-06T10:52:13.367Z,2.10
2023-05-06T10:54:49.988Z,2.20
2023-05-06T10:57:16.550Z,2.60
2023-05-06T10:59:46.355Z,2.40
2023-05-06T11:02:13.126Z,2.40
2023-05-06T11:04:39.972Z,2.00
2023-05-06T11:07:14.395Z,2.50
2023-05-06T11:10:13.423Z,2.00
2023-05-06T11:12:45.922Z,2.30
2023-05-06T11:15:43.075Z,2.20
2023-05-06T11:18:25.812Z,2.10
2023-05-06T11:20:59.784Z,2.20
2023-05-06T11:23:41.953Z,2.00
2023-05-06T11:26:09.408Z,2.10
2023-05-06T11:28:36.022Z,2.30
2023-05-06T11:31:02.715Z,2.20
2023-05-06T11:33:32.889Z,2.50
2023-05-06T11:36:00.018Z,1.90
2023-05-06T11:38:39.953Z,2.10
2023-05-06T11:41:06.710Z,1.90
2023-05-06T11:43:33.869Z,2.20
2023-05-06T11:46:00.539Z,2.00
2023-05-06T11:48:27.088Z,2.00
2023-05-06T11:50:53.983Z,2.20
2023-05-06T11:53:22.398Z,2.30
2023-05-06T11:55:51.040Z,2.40
2023-05-06T11:58:27.407Z,2.20
2023-05-06T12:00:58.469Z,2.10
2023-05-06T12:03:25.906Z,2.00
2023-05-06T12:05:52.895Z,2.30
2023-05-06T12:08:27.877Z,2.20
2023-05-06T12:10:56.115Z,2.30
2023-05-06T12:13:22.996Z,2.50
2023-05-06T12:15:49.793Z,2.10
2023-05-06T12:18:17.057Z,2.10
2023-05-06T12:20:43.634Z,2.50
2023-05-06T12:23:14.323Z,2.10
2023-05-06T12:25:42.174Z,2.20
2023-05-06T12:28:19.136Z,2.20
2023-05-06T12:30:45.917Z,2.00
2023-05-06T12:33:13.871Z,2.20
2023-05-06T12:35:40.675Z,2.10
2023-05-06T12:38:11.688Z,2.30
2023-05-06T12:40:38.643Z,2.00
2023-05-06T12:43:05.607Z,2.30
2023-05-06T12:45:32.300Z,1.90
2023-05-06T12:48:03.270Z,2.40
2023-05-06T12:50:31.245Z,2.90
2023-05-06T12:52:57.908Z,2.50
2023-05-06T12:55:27.296Z,2.50
2023-05-06T12:57:55.534Z,2.30
2023-05-06T13:00:23.422Z,2.40
2023-05-06T13:02:50.100Z,2.10
2023-05-06T13:05:16.830Z,2.40
2023-05-06T13:07:43.454Z,2.30
2023-05-06T13:10:10.917Z,1.80
2023-05-06T13:12:38.027Z,1.80
2023-05-06T13:15:05.197Z,2.20
2023-05-06T13:17:32.148Z,2.10
2023-05-06T13:19:58.766Z,1.90
2023-05-06T13:22:25.363Z,1.90
2023-05-06T13:24:52.962Z,2.20
2023-05-06T13:27:19.519Z,1.70
2023-05-06T13:29:46.060Z,2.10
2023-05-06T13:32:12.649Z,1.90
2023-05-06T13:34:39.397Z,1.90
2023-05-06T13:37:07.106Z,2.20
2023-05-06T13:39:34.513Z,2.20
2023-05-06T13:42:02.043Z,2.00
2023-05-06T13:44:29.126Z,2.30
2023-05-06T13:46:56.083Z,1.90
2023-05-06T13:49:22.692Z,2.50
2023-05-06T13:51:49.461Z,2.10
2023-05-06T13:54:16.193Z,2.10
2023-05-06T13:56:43.027Z,1.60
2023-05-06T13:59:11.194Z,2.20
2023-05-06T14:01:38.574Z,1.90
2023-05-06T14:04:05.356Z,1.80
2023-05-06T14:06:32.756Z,1.90
2023-05-06T14:08:59.770Z,1.70
2023-05-06T14:11:26.284Z,1.90
2023-05-06T14:13:53.461Z,2.20
2023-05-06T14:16:20.079Z,1.80
2023-05-06T14:18:46.986Z,2.00
2023-05-06T14:21:13.715Z,2.10
2023-05-06T14:23:40.342Z,1.60
2023-05-06T14:26:07.140Z,1.60
2023-05-06T14:28:34.006Z,2.10
2023-05-06T14:31:00.612Z,2.30
2023-05-06T14:33:27.188Z,2.10
2023-05-06T14:35:53.898Z,2.20
2023-05-06T14:38:20.393Z,1.60
2023-05-06T14:40:46.866Z,1.90
2023-05-06T14:43:13.831Z,1.60
2023-05-06T14:45:40.374Z,1.50
2023-05-06T14:48:06.956Z,1.50
2023-05-06T14:50:34.120Z,1.80
2023-05-06T14:53:02.949Z,1.60
2023-05-06T14:55:32.990Z,2.00
2023-05-06T14:57:59.746Z,1.90
2023-05-06T15:00:26.433Z,1.60
2023-05-06T15:02:53.293Z,1.80
2023-05-06T15:05:20.011Z,1.50
2023-05-06T15:07:46.769Z,1.80
2023-05-06T15:10:13.476Z,1.90
2023-05-06T15:12:40.414Z,1.60
2023-05-06T15:15:07.707Z,1.70
2023-05-06T15:17:34.492Z,2.30
2023-05-06T15:20:01.350Z,1.70
2023-05-06T15:22:28.194Z,2.10
2023-05-06T15:24:54.782Z,1.70
2023-05-06T15:27:21.412Z,1.80
2023-05-06T15:29:48.248Z,1.90
2023-05-06T15:32:14.780Z,2.00
2023-05-06T15:34:41.436Z,1.70
2023-05-06T15:37:08.124Z,1.70
2023-05-06T15:39:38.168Z,2.20
2023-05-06T15:42:05.652Z,1.70
2023-05-06T15:44:33.297Z,2.20
2023-05-06T15:47:00.418Z,1.60
2023-05-06T15:49:49.388Z,1.90
2023-05-06T15:52:14.020Z,1.90
2023-05-06T15:54:41.311Z,2.30
2023-05-06T15:57:08.129Z,2.00
2023-05-06T15:59:35.246Z,2.20
2023-05-06T16:04:32.869Z,2.60
2023-05-06T16:06:59.596Z,2.00
2023-05-06T16:09:26.216Z,2.50
2023-05-06T16:11:54.207Z,3.20
2023-05-06T16:14:20.975Z,2.30
2023-05-06T16:16:47.525Z,1.90
2023-05-06T16:19:14.054Z,2.40
2023-05-06T16:21:40.775Z,2.30
2023-05-06T16:24:08.087Z,2.30
2023-05-06T16:26:36.180Z,2.30
2023-05-06T16:29:02.969Z,2.10
2023-05-06T16:31:30.039Z,1.60
2023-05-06T16:33:56.844Z,2.20
2023-05-06T16:36:23.400Z,1.90
2023-05-06T16:38:50.082Z,2.00
2023-05-06T16:41:16.859Z,2.30
2023-05-06T16:43:43.529Z,1.90
2023-05-06T16:46:10.457Z,2.00
2023-05-06T16:48:38.032Z,1.60
2023-05-06T16:51:04.862Z,1.60
2023-05-06T16:53:31.731Z,1.90
2023-05-06T16:56:00.699Z,2.20
2023-05-06T16:58:29.590Z,2.10
2023-05-06T17:00:56.239Z,2.00
2023-05-06T17:03:22.911Z,2.00
2023-05-06T17:05:49.994Z,1.90
2023-05-06T17:08:16.604Z,2.20
2023-05-06T17:10:43.200Z,1.90
2023-05-06T17:13:10.022Z,1.90
2023-05-06T17:15:36.896Z,1.70
2023-05-06T17:18:03.624Z,2.50
2023-05-06T17:20:31.316Z,1.80
2023-05-06T17:22:57.994Z,1.90
2023-05-06T17:25:24.833Z,1.60
2023-05-06T17:27:51.483Z,1.70
2023-05-06T17:30:18.208Z,1.90
2023-05-06T17:32:44.931Z,1.90
2023-05-06T17:35:12.040Z,1.80
2023-05-06T17:37:39.220Z,1.80
2023-05-06T17:40:07.045Z,2.20
2023-05-06T17:42:36.021Z,2.40
2023-05-06T17:45:02.803Z,1.90
2023-05-06T17:47:30.226Z,2.00
2023-05-06T17:49:57.065Z,1.80
2023-05-06T17:52:26.192Z,1.80
2023-05-06T17:55:10.802Z,1.70
2023-05-06T17:57:39.944Z,2.00
2023-05-06T18:00:14.466Z,1.80
2023-05-06T18:02:45.154Z,2.00
2023-05-06T18:05:13.235Z,1.80
2023-05-06T18:07:41.884Z,1.80
2023-05-06T18:10:09.066Z,1.70
2023-05-06T18:12:36.296Z,1.50
2023-05-06T18:15:04.343Z,2.30
2023-05-06T18:17:31.752Z,1.40
2023-05-06T18:19:58.332Z,1.40
2023-05-06T18:22:25.027Z,2.00
2023-05-06T18:24:55.450Z,1.50
2023-05-06T18:27:23.180Z,2.40
2023-05-06T18:29:50.345Z,1.70
2023-05-06T18:32:17.456Z,1.90
2023-05-06T18:34:43.998Z,1.80
2023-05-06T18:37:10.682Z,2.10
2023-05-06T18:39:44.860Z,1.80
2023-05-06T18:42:11.383Z,1.80
2023-05-06T18:44:39.008Z,2.10
2023-05-06T18:47:05.967Z,1.80
2023-05-06T18:49:32.639Z,2.00
2023-05-06T18:51:59.402Z,1.70
2023-05-06T18:54:25.976Z,1.80
2023-05-06T18:56:58.167Z,1.90
2023-05-06T18:59:25.308Z,1.80
2023-05-06T19:01:53.247Z,2.40
2023-05-06T19:04:20.022Z,2.40
2023-05-06T19:06:46.679Z,2.20
2023-05-06T19:09:13.602Z,2.20
2023-05-06T19:11:40.227Z,2.20
2023-05-06T19:14:06.948Z,2.20
2023-05-06T19:16:33.810Z,2.20
2023-05-06T19:19:02.151Z,2.50
2023-05-06T19:21:29.109Z,2.20
2023-05-06T19:23:59.137Z,2.70
2023-05-06T19:26:29.237Z,2.20
2023-05-06T19:28:55.781Z,2.30
2023-05-06T19:31:22.804Z,2.50
2023-05-06T19:33:49.994Z,2.70
2023-05-06T19:36:16.713Z,2.90
2023-05-06T19:38:43.339Z,2.60
2023-05-06T19:41:10.344Z,2.80
2023-05-06T19:43:41.546Z,2.60
2023-05-06T19:46:08.851Z,2.50
2023-05-06T19:48:36.782Z,2.40
2023-05-06T19:51:04.191Z,2.40
2023-05-06T19:53:32.167Z,2.80
2023-05-06T19:56:06.843Z,2.50
2023-05-06T19:58:33.495Z,2.40
2023-05-06T20:01:00.314Z,3.30
2023-05-06T20:03:26.993Z,2.10
2023-05-06T20:05:54.190Z,2.40
2023-05-06T20:11:26.948Z,3.20
2023-05-06T20:13:53.870Z,3.00
2023-05-06T20:16:20.719Z,2.70
2023-05-06T20:18:48.393Z,2.40
2023-05-06T20:21:16.128Z,2.60
2023-05-06T20:23:42.877Z,3.10
2023-05-06T20:26:09.700Z,2.80
2023-05-06T20:28:39.227Z,2.50
2023-05-06T20:31:07.078Z,3.60
2023-05-06T20:33:34.085Z,2.80
2023-05-06T20:36:00.861Z,2.60
2023-05-06T20:38:30.256Z,2.80
2023-05-06T20:40:58.996Z,3.00
2023-05-06T20:43:25.933Z,3.00
2023-05-06T20:45:52.802Z,3.70
2023-05-06T20:48:19.849Z,2.90
2023-05-06T20:50:46.779Z,4.80
2023-05-06T20:53:13.680Z,3.40
2023-05-06T20:55:40.841Z,2.90
2023-05-06T20:58:08.013Z,3.30
2023-05-06T21:00:34.867Z,3.00
2023-05-06T21:03:02.141Z,3.30
2023-05-06T21:05:29.329Z,3.20
2023-05-06T21:07:56.103Z,3.20
2023-05-06T21:10:22.978Z,2.40
2023-05-06T21:12:50.941Z,2.50
2023-05-06T21:15:17.987Z,3.00
2023-05-06T21:17:45.077Z,3.20
2023-05-06T21:20:13.014Z,3.10
2023-05-06T21:22:40.139Z,3.50
2023-05-06T21:25:08.414Z,3.10
2023-05-06T21:27:35.991Z,3.60
2023-05-06T21:30:03.442Z,3.10
2023-05-06T21:32:33.327Z,3.30
2023-05-06T21:35:03.951Z,2.80
2023-05-06T21:37:30.783Z,3.50
2023-05-06T21:39:57.650Z,2.80
2023-05-06T21:42:24.414Z,3.00
2023-05-06T21:44:51.154Z,2.90
2023-05-06T21:47:17.900Z,2.70
2023-05-06T21:49:44.664Z,3.20
2023-05-06T21:52:11.537Z,3.30
2023-05-06T21:54:38.406Z,3.90
2023-05-06T21:57:08.164Z,3.30
2023-05-06T21:59:35.780Z,3.20
2023-05-06T22:02:03.520Z,3.70
2023-05-06T22:04:30.823Z,4.20
2023-05-06T22:06:57.678Z,4.30
2023-05-06T22:09:24.559Z,3.50
2023-05-06T22:11:51.953Z,2.90
2023-05-06T22:14:21.959Z,4.20
2023-05-06T22:16:52.805Z,3.20
2023-05-06T22:19:20.367Z,3.50
2023-05-06T22:21:47.339Z,4.00
2023-05-06T22:24:14.124Z,3.90
2023-05-06T22:26:40.987Z,3.70
2023-05-06T22:29:07.819Z,3.70
2023-05-06T22:31:34.679Z,3.60
2023-05-06T22:34:04.969Z,3.80
2023-05-06T22:36:33.682Z,3.90
2023-05-06T22:39:01.556Z,3.90
2023-05-06T22:41:29.706Z,3.50
2023-05-06T22:43:57.382Z,3.80
2023-05-06T22:46:24.228Z,4.10
2023-05-06T22:48:51.209Z,4.00
2023-05-06T22:51:17.924Z,3.30
2023-05-06T22:53:45.354Z,3.60
2023-05-06T22:56:12.146Z,3.90
2023-05-06T22:58:38.973Z,3.90
2023-05-06T23:01:07.471Z,3.90
2023-05-06T23:03:35.259Z,3.70
2023-05-06T23:06:03.958Z,4.30
2023-05-06T23:08:30.816Z,4.50
2023-05-06T23:10:57.550Z,3.60
2023-05-06T23:13:24.506Z,3.70
2023-05-06T23:15:52.037Z,2.90
2023-05-06T23:18:19.327Z,3.00
2023-05-06T23:20:46.105Z,3.70
2023-05-06T23:23:12.946Z,3.40
2023-05-06T23:25:39.763Z,3.50
2023-05-06T23:28:06.534Z,3.30
2023-05-06T23:30:33.830Z,3.30
2023-05-06T23:33:00.724Z,3.30
2023-05-06T23:35:27.598Z,3.30
2023-05-06T23:37:54.438Z,3.40
2023-05-06T23:40:21.246Z,4.10
2023-05-06T23:42:48.112Z,4.00
2023-05-06T23:45:14.985Z,3.70
2023-05-06T23:47:42.207Z,3.90
2023-05-06T23:50:09.708Z,3.20
2023-05-06T23:52:38.654Z,3.90
2023-05-06T23:55:06.216Z,2.80
2023-05-06T23:57:33.028Z,3.60
2023-05-06T23:59:59.828Z,3.50
